Terminal Aerodrome Forecast
Issued by NWS

Home | Current Version | Previous Version | Text Only | Print | Product List | Glossary On
Versions: 1 2 3 4 5 6 7 8 9 10 11 12 13 14 15 16
000
FTUS43 KDTX 300530
TAFDET
TAF
KDET 300530Z 3006/0106 08004KT 6SM -SHRA BR OVC020
     FM300800 VRB04KT 6SM BR OVC020
     FM300900 VRB03KT 6SM BR BKN008 OVC016
     FM301300 26005KT P6SM BKN024
     FM301600 24007KT P6SM BKN040 PROB30 3020/3023 4SM TSRA OVC028CB
     FM010100 28006KT P6SM BKN060=

USA.gov is the U.S. government's official web portal to all federal, state and local government web resources and services.